Maria Juana, Argentina
Current Conditions -  °F | °C
As of 7:00 PM on Monday 24 Nov 2014 (Local Time) from SAAR Reporting Station
Clear Clear  
Wind Chill: 77°   Ceiling: Unl
Heat Index: 78°   Visibility: 6mi
Dew Point: 46°   Wind: 14mph
Humidity: 34%   Direction: 160°SSE
Pressure: 29.8"   Gusts: NA
Location:  31.68°S, 61.73°W
Report Text: SAAR 242200Z 16012KT CAVOK 25/08 Q1009
Loading
Personal Weather Stations






























Interactive Weather Map New forecast layout! Learn more

10-Day Weather Forecast

Advertisements
Track Severe Weather on mobile